createdAt,value
2023-11-22T00:00:44.947Z,12.20
2023-11-22T00:03:12.323Z,12.27
2023-11-22T00:05:40.975Z,12.04
2023-11-22T00:08:08.281Z,12.17
2023-11-22T00:10:35.592Z,12.31
2023-11-22T00:13:03.534Z,12.06
2023-11-22T00:15:30.807Z,11.89
2023-11-22T00:17:58.111Z,11.99
2023-11-22T00:20:25.444Z,11.93
2023-11-22T00:22:54.153Z,11.93
2023-11-22T00:25:21.521Z,11.80
2023-11-22T00:27:48.861Z,11.86
2023-11-22T00:30:16.373Z,11.92
2023-11-22T00:32:43.759Z,11.82
2023-11-22T00:35:11.334Z,11.98
2023-11-22T00:37:38.773Z,12.03
2023-11-22T00:40:08.688Z,11.98
2023-11-22T00:42:35.948Z,12.00
2023-11-22T00:45:03.433Z,12.09
2023-11-22T00:47:30.749Z,12.13
2023-11-22T00:49:58.123Z,12.15
2023-11-22T00:52:25.675Z,12.31
2023-11-22T00:54:52.954Z,12.26
2023-11-22T00:57:21.669Z,12.25
2023-11-22T00:59:49.029Z,12.05
2023-11-22T01:02:16.357Z,12.14
2023-11-22T01:04:43.696Z,12.09
2023-11-22T01:07:10.968Z,12.13
2023-11-22T01:09:38.254Z,12.29
2023-11-22T01:12:06.388Z,12.29
2023-11-22T01:14:35.078Z,12.32
2023-11-22T01:17:02.390Z,12.34
2023-11-22T01:19:29.768Z,12.40
2023-11-22T01:21:57.059Z,12.36
2023-11-22T01:24:24.327Z,12.32
2023-11-22T01:26:51.612Z,12.45
2023-11-22T01:29:18.931Z,12.45
2023-11-22T01:31:47.579Z,12.35
2023-11-22T01:34:14.830Z,12.28
2023-11-22T01:36:43.700Z,12.06
2023-11-22T01:39:12.125Z,12.11
2023-11-22T01:41:39.392Z,12.33
2023-11-22T01:44:06.733Z,12.39
2023-11-22T01:46:34.162Z,12.49
2023-11-22T01:49:03.221Z,12.52
2023-11-22T01:51:31.423Z,12.47
2023-11-22T01:53:59.410Z,12.25
2023-11-22T01:56:27.646Z,12.23
2023-11-22T01:58:58.754Z,12.29
2023-11-22T02:01:27.128Z,12.29
2023-11-22T02:03:54.566Z,12.42
2023-11-22T02:06:23.556Z,12.39
2023-11-22T02:08:50.885Z,12.42
2023-11-22T02:11:19.017Z,12.52
2023-11-22T02:13:46.290Z,12.63
2023-11-22T02:16:13.649Z,12.65
2023-11-22T02:18:40.988Z,12.72
2023-11-22T02:21:08.279Z,12.77
2023-11-22T02:23:36.907Z,12.78
2023-11-22T02:26:04.251Z,12.81
2023-11-22T02:28:31.588Z,12.60
2023-11-22T02:30:58.849Z,12.59
2023-11-22T02:33:26.223Z,12.57
2023-11-22T02:35:53.666Z,12.57
2023-11-22T02:38:21.001Z,12.65
2023-11-22T02:40:50.164Z,12.72
2023-11-22T02:43:17.539Z,12.74
2023-11-22T02:45:45.755Z,12.68
2023-11-22T02:48:13.159Z,12.75
2023-11-22T02:50:40.609Z,12.80
2023-11-22T02:53:08.085Z,12.80
2023-11-22T02:55:35.377Z,12.80
2023-11-22T02:58:04.082Z,12.82
2023-11-22T03:00:31.442Z,12.82
2023-11-22T03:02:58.883Z,12.72
2023-11-22T03:05:26.388Z,12.69
2023-11-22T03:07:53.777Z,12.71
2023-11-22T03:10:21.069Z,12.75
2023-11-22T03:12:48.335Z,12.78
2023-11-22T03:15:17.039Z,12.81
2023-11-22T03:17:44.394Z,12.84
2023-11-22T03:20:12.434Z,12.58
2023-11-22T03:22:39.933Z,12.70
2023-11-22T03:25:07.732Z,12.80
2023-11-22T03:27:35.003Z,12.87
2023-11-22T03:30:02.334Z,12.88
2023-11-22T03:32:31.063Z,12.91
2023-11-22T03:34:58.509Z,12.90
2023-11-22T03:37:25.852Z,12.93
2023-11-22T03:39:53.108Z,12.96
2023-11-22T03:42:20.368Z,12.96
2023-11-22T03:44:47.664Z,12.96
2023-11-22T03:47:16.287Z,12.96
2023-11-22T03:49:45.015Z,12.95
2023-11-22T03:52:12.817Z,12.95
2023-11-22T03:54:40.181Z,12.94
2023-11-22T03:57:07.484Z,12.94
2023-11-22T03:59:35.566Z,12.96
2023-11-22T04:02:02.898Z,12.95
2023-11-22T04:04:30.203Z,12.92
2023-11-22T04:06:58.892Z,12.94
2023-11-22T04:09:26.236Z,12.93
2023-11-22T04:11:53.523Z,12.94
2023-11-22T04:14:20.786Z,12.93
2023-11-22T04:16:48.753Z,12.96
2023-11-22T04:19:16.555Z,12.95
2023-11-22T04:21:44.090Z,12.94
2023-11-22T04:24:12.720Z,12.92
2023-11-22T04:26:40.066Z,12.90
2023-11-22T04:29:07.571Z,12.90
2023-11-22T04:31:34.988Z,12.95
2023-11-22T04:34:02.461Z,12.92
2023-11-22T04:36:29.793Z,12.86
2023-11-22T04:38:57.057Z,12.86
2023-11-22T04:41:25.762Z,12.92
2023-11-22T04:43:53.092Z,12.83
2023-11-22T04:46:20.374Z,12.78
2023-11-22T04:48:47.766Z,12.77
2023-11-22T04:51:15.740Z,12.86
2023-11-22T04:53:43.060Z,12.88
2023-11-22T04:56:10.367Z,12.87
2023-11-22T04:58:39.073Z,12.67
2023-11-22T05:01:06.461Z,12.67
2023-11-22T05:03:33.840Z,12.48
2023-11-22T05:06:01.218Z,12.41
2023-11-22T05:08:28.509Z,12.50
2023-11-22T05:10:57.279Z,12.49
2023-11-22T05:13:24.668Z,12.60
2023-11-22T05:15:53.342Z,12.61
2023-11-22T05:18:20.752Z,12.67
2023-11-22T05:20:48.286Z,12.68
2023-11-22T05:23:15.693Z,12.53
2023-11-22T05:25:43.007Z,12.39
2023-11-22T05:28:10.333Z,12.17
2023-11-22T05:30:37.603Z,12.08
2023-11-22T05:33:06.271Z,12.07
2023-11-22T05:35:33.655Z,12.23
2023-11-22T05:38:00.954Z,12.21
2023-11-22T05:40:28.225Z,12.27
2023-11-22T05:42:55.600Z,12.38
2023-11-22T05:45:22.874Z,12.37
2023-11-22T05:47:50.233Z,12.39
2023-11-22T05:50:19.005Z,12.36
2023-11-22T05:52:46.360Z,12.28
2023-11-22T05:55:13.792Z,12.36
2023-11-22T05:57:41.141Z,12.14
2023-11-22T06:00:09.603Z,11.98
2023-11-22T06:02:37.016Z,11.99
2023-11-22T06:05:04.962Z,11.87
2023-11-22T06:07:33.744Z,11.79
2023-11-22T06:10:01.045Z,11.82
2023-11-22T06:12:28.346Z,11.84
2023-11-22T06:14:55.654Z,11.60
2023-11-22T06:17:22.977Z,11.38
2023-11-22T06:19:50.261Z,11.26
2023-11-22T06:22:17.559Z,11.28
2023-11-22T06:24:46.331Z,11.15
2023-11-22T06:27:13.767Z,11.17
2023-11-22T06:29:41.184Z,11.20
2023-11-22T06:32:08.593Z,11.22
2023-11-22T06:34:37.580Z,11.34
2023-11-22T06:37:06.353Z,11.42
2023-11-22T06:39:33.688Z,11.36
2023-11-22T06:42:02.337Z,11.49
2023-11-22T06:44:29.689Z,11.67
2023-11-22T06:46:56.987Z,11.74
2023-11-22T06:49:24.269Z,11.86
2023-11-22T06:51:51.579Z,11.92
2023-11-22T06:54:20.241Z,11.89
2023-11-22T06:56:47.580Z,11.71
2023-11-22T06:59:16.311Z,11.78
2023-11-22T07:01:43.965Z,11.85
2023-11-22T07:04:11.440Z,11.54
2023-11-22T07:06:38.958Z,11.63
2023-11-22T07:09:06.791Z,11.60
2023-11-22T07:11:34.163Z,11.47
2023-11-22T07:14:01.448Z,11.25
2023-11-22T07:16:30.095Z,11.21
2023-11-22T07:18:57.490Z,11.36
2023-11-22T07:21:24.804Z,11.54
2023-11-22T07:23:53.653Z,11.65
2023-11-22T07:26:21.199Z,11.62
2023-11-22T07:28:48.604Z,11.70
2023-11-22T07:31:16.093Z,11.80
2023-11-22T07:33:44.767Z,11.89
2023-11-22T07:36:12.057Z,11.91
2023-11-22T07:38:39.648Z,11.98
2023-11-22T07:41:07.013Z,12.11
2023-11-22T07:43:34.316Z,12.05
2023-11-22T07:46:01.650Z,12.01
2023-11-22T07:48:28.969Z,12.22
2023-11-22T07:50:57.691Z,12.18
2023-11-22T07:53:25.066Z,12.30
2023-11-22T07:55:52.370Z,12.47
2023-11-22T07:58:19.769Z,12.24
2023-11-22T08:00:47.235Z,11.99
2023-11-22T08:03:14.686Z,11.95
2023-11-22T08:05:42.157Z,11.91
2023-11-22T08:08:10.888Z,11.88
2023-11-22T08:10:38.508Z,11.70
2023-11-22T08:13:05.826Z,11.85
2023-11-22T08:15:33.269Z,12.11
2023-11-22T08:18:00.716Z,12.02
2023-11-22T08:20:28.133Z,12.26
2023-11-22T08:22:55.439Z,12.29
2023-11-22T08:25:24.093Z,12.51
2023-11-22T08:27:51.378Z,12.46
2023-11-22T08:30:19.076Z,12.64
2023-11-22T08:32:47.380Z,12.80
2023-11-22T08:35:15.023Z,12.99
2023-11-22T08:37:43.228Z,13.05
2023-11-22T08:40:11.884Z,13.05
2023-11-22T08:42:40.670Z,13.17
2023-11-22T08:45:09.123Z,13.10
2023-11-22T08:47:36.509Z,12.95
2023-11-22T08:50:04.542Z,12.85
2023-11-22T08:52:31.898Z,12.64
2023-11-22T08:54:59.199Z,12.58
2023-11-22T08:57:26.463Z,12.31
2023-11-22T08:59:56.236Z,12.49
2023-11-22T09:02:23.604Z,12.59
2023-11-22T09:04:50.939Z,12.50
2023-11-22T09:07:18.231Z,12.40
2023-11-22T09:09:45.531Z,12.50
2023-11-22T09:12:12.800Z,12.23
2023-11-22T09:14:41.211Z,12.58
2023-11-22T09:17:10.273Z,12.84
2023-11-22T09:19:37.810Z,12.86
2023-11-22T09:22:05.785Z,13.22
2023-11-22T09:24:33.662Z,13.31
2023-11-22T09:27:00.928Z,13.53
2023-11-22T09:29:28.941Z,13.61
2023-11-22T09:31:56.687Z,13.53
2023-11-22T09:34:25.543Z,13.86
2023-11-22T09:36:52.876Z,13.90
2023-11-22T09:39:20.173Z,13.73
2023-11-22T09:41:47.558Z,13.89
2023-11-22T09:44:15.016Z,14.18
2023-11-22T09:46:43.113Z,14.03
2023-11-22T09:49:15.990Z,13.81
2023-11-22T09:51:45.170Z,13.65
2023-11-22T09:54:13.253Z,13.31
2023-11-22T09:56:41.173Z,12.92
2023-11-22T09:59:09.485Z,13.24
2023-11-22T10:01:36.934Z,13.36
2023-11-22T10:04:04.987Z,13.31
2023-11-22T10:06:32.400Z,13.43
2023-11-22T10:09:01.880Z,13.42
2023-11-22T10:11:30.156Z,13.53
2023-11-22T10:13:57.457Z,13.25
2023-11-22T10:16:24.745Z,13.28
2023-11-22T10:18:52.255Z,13.24
2023-11-22T10:21:21.199Z,13.26
2023-11-22T10:23:49.103Z,13.45
2023-11-22T10:26:17.921Z,13.07
2023-11-22T10:28:45.621Z,13.31
2023-11-22T10:31:13.017Z,13.68
2023-11-22T10:33:40.913Z,13.71
2023-11-22T10:36:08.725Z,13.92
2023-11-22T10:38:36.662Z,13.95
2023-11-22T10:41:05.461Z,13.87
2023-11-22T10:43:35.688Z,13.66
2023-11-22T10:46:03.805Z,13.60
2023-11-22T10:48:32.175Z,13.55
2023-11-22T10:51:02.240Z,13.29
2023-11-22T10:53:33.265Z,12.91
2023-11-22T10:56:07.940Z,13.27
2023-11-22T10:58:38.748Z,13.72
2023-11-22T11:01:07.423Z,13.94
2023-11-22T11:03:38.746Z,13.85
2023-11-22T11:06:11.249Z,13.96
2023-11-22T11:08:39.333Z,14.32
2023-11-22T11:11:06.656Z,14.33
2023-11-22T11:13:34.017Z,14.19
2023-11-22T11:16:03.086Z,14.51
2023-11-22T11:18:31.788Z,14.57
2023-11-22T11:21:00.005Z,14.51
2023-11-22T11:23:28.258Z,14.62
2023-11-22T11:25:56.668Z,14.61
2023-11-22T11:28:24.707Z,14.78
2023-11-22T11:30:52.157Z,14.25
2023-11-22T11:33:27.967Z,14.21
2023-11-22T11:35:58.325Z,14.37
2023-11-22T11:38:32.244Z,14.52
2023-11-22T11:41:07.917Z,14.73
2023-11-22T11:43:41.833Z,14.59
2023-11-22T11:46:10.106Z,13.99
2023-11-22T11:48:38.914Z,13.58
2023-11-22T11:51:06.339Z,13.66
2023-11-22T11:53:33.678Z,13.85
2023-11-22T11:56:02.709Z,13.38
2023-11-22T11:58:30.229Z,13.37
2023-11-22T12:00:57.481Z,13.77
2023-11-22T12:03:24.857Z,13.56
2023-11-22T12:05:53.588Z,13.12
2023-11-22T12:08:21.146Z,13.07
2023-11-22T12:10:48.651Z,12.93
2023-11-22T12:13:18.246Z,13.06
2023-11-22T12:15:45.537Z,12.99
2023-11-22T12:18:12.954Z,13.48
2023-11-22T12:20:40.697Z,13.92
2023-11-22T12:23:10.404Z,13.99
2023-11-22T12:25:37.674Z,13.65
2023-11-22T12:28:05.313Z,14.01
2023-11-22T12:30:34.007Z,14.19
2023-11-22T12:33:05.737Z,14.39
2023-11-22T12:35:33.505Z,14.40
2023-11-22T12:38:01.217Z,14.43
2023-11-22T12:40:30.571Z,14.42
2023-11-22T12:42:58.558Z,14.58
2023-11-22T12:45:27.607Z,14.66
2023-11-22T12:47:55.392Z,14.84
2023-11-22T12:50:33.871Z,14.45
2023-11-22T12:53:09.320Z,14.30
2023-11-22T12:55:38.327Z,14.58
2023-11-22T12:58:05.599Z,14.63
2023-11-22T13:00:32.912Z,14.69
2023-11-22T13:03:03.689Z,14.70
2023-11-22T13:05:31.897Z,14.66
2023-11-22T13:08:00.987Z,14.55
2023-11-22T13:10:29.710Z,14.52
2023-11-22T13:12:58.391Z,14.57
2023-11-22T13:15:25.774Z,14.60
2023-11-22T13:17:53.544Z,14.65
2023-11-22T13:20:20.849Z,14.68
2023-11-22T13:22:48.164Z,14.62
2023-11-22T13:25:15.525Z,14.52
2023-11-22T13:27:42.783Z,14.21
2023-11-22T13:30:11.633Z,14.57
2023-11-22T13:32:39.076Z,14.84
2023-11-22T13:35:06.768Z,15.08
2023-11-22T13:37:34.043Z,15.19
2023-11-22T13:40:01.355Z,15.30
2023-11-22T13:42:28.641Z,15.49
2023-11-22T13:44:55.950Z,15.72
2023-11-22T13:47:24.748Z,15.27
2023-11-22T13:49:52.082Z,15.41
2023-11-22T13:52:19.394Z,14.95
2023-11-22T13:54:46.654Z,14.94
2023-11-22T13:57:13.929Z,14.82
2023-11-22T13:59:41.233Z,15.03
2023-11-22T14:02:08.513Z,15.06
2023-11-22T14:04:37.199Z,14.81
2023-11-22T14:07:04.464Z,14.46
2023-11-22T14:09:31.803Z,14.38
2023-11-22T14:11:59.100Z,13.92
2023-11-22T14:14:26.378Z,13.92
2023-11-22T14:16:55.067Z,14.04
2023-11-22T14:19:22.315Z,13.51
2023-11-22T14:21:51.009Z,13.77
2023-11-22T14:24:18.266Z,14.12
2023-11-22T14:26:45.550Z,13.86
2023-11-22T14:29:12.837Z,13.69
2023-11-22T14:31:40.213Z,13.92
2023-11-22T14:34:07.530Z,14.19
2023-11-22T14:36:34.807Z,14.23
2023-11-22T14:39:03.622Z,14.31
2023-11-22T14:41:30.925Z,14.37
2023-11-22T14:43:58.224Z,14.38
2023-11-22T14:46:25.499Z,14.72
2023-11-22T14:48:52.756Z,14.67
2023-11-22T14:51:20.013Z,14.78
2023-11-22T14:53:47.309Z,14.70
2023-11-22T14:56:16.004Z,14.40
2023-11-22T14:58:43.280Z,14.28
2023-11-22T15:01:10.636Z,14.28
2023-11-22T15:03:38.045Z,14.12
2023-11-22T15:06:05.929Z,13.60
2023-11-22T15:08:33.196Z,13.25
2023-11-22T15:11:00.462Z,13.02
2023-11-22T15:13:29.130Z,13.44
2023-11-22T15:15:56.422Z,13.73
2023-11-22T15:18:23.786Z,14.12
2023-11-22T15:20:51.128Z,14.09
2023-11-22T15:23:18.433Z,14.03
2023-11-22T15:25:45.794Z,14.08
2023-11-22T15:28:13.069Z,14.15
2023-11-22T15:30:41.761Z,14.34
2023-11-22T15:33:09.152Z,14.21
2023-11-22T15:35:36.553Z,14.09
2023-11-22T15:38:03.902Z,13.42
2023-11-22T15:40:31.260Z,13.40
2023-11-22T15:42:58.735Z,13.14
2023-11-22T15:45:25.996Z,13.01
2023-11-22T15:47:54.719Z,13.22
2023-11-22T15:50:22.053Z,13.30
2023-11-22T15:52:49.611Z,13.09
2023-11-22T15:55:16.889Z,13.10
2023-11-22T15:57:44.425Z,13.17
2023-11-22T16:00:13.670Z,13.12
2023-11-22T16:02:41.100Z,13.26
2023-11-22T16:05:12.760Z,13.34
2023-11-22T16:07:41.954Z,12.34
2023-11-22T16:10:10.028Z,12.64
2023-11-22T16:12:37.302Z,12.70
2023-11-22T16:15:05.218Z,12.47
2023-11-22T16:17:32.559Z,12.50
2023-11-22T16:19:59.862Z,12.18
2023-11-22T16:22:28.513Z,12.26
2023-11-22T16:24:55.801Z,12.35
2023-11-22T16:27:23.088Z,12.36
2023-11-22T16:29:50.428Z,12.31
2023-11-22T16:32:17.799Z,12.00
2023-11-22T16:34:45.047Z,11.98
2023-11-22T16:37:12.304Z,11.99
2023-11-22T16:39:40.943Z,11.96
2023-11-22T16:42:08.244Z,11.83
2023-11-22T16:44:35.512Z,11.74
2023-11-22T16:47:02.998Z,11.69
2023-11-22T16:49:30.286Z,11.47
2023-11-22T16:51:57.568Z,11.47
2023-11-22T16:54:24.856Z,11.30
2023-11-22T16:56:53.582Z,11.31
2023-11-22T16:59:20.881Z,11.15
2023-11-22T17:01:48.222Z,11.19
2023-11-22T17:04:15.510Z,11.15
2023-11-22T17:06:42.757Z,10.88
2023-11-22T17:09:10.103Z,10.91
2023-11-22T17:11:37.402Z,10.74
2023-11-22T17:14:06.089Z,10.76
2023-11-22T17:16:33.411Z,10.81
2023-11-22T17:19:00.679Z,10.69
2023-11-22T17:21:27.998Z,10.54
2023-11-22T17:23:55.260Z,10.59
2023-11-22T17:26:22.662Z,10.35
2023-11-22T17:28:49.936Z,10.25
2023-11-22T17:31:18.666Z,10.30
2023-11-22T17:33:46.069Z,10.05
2023-11-22T17:36:13.521Z,9.81
2023-11-22T17:38:40.812Z,9.67
2023-11-22T17:41:08.105Z,9.78
2023-11-22T17:43:35.473Z,9.50
2023-11-22T17:46:02.766Z,9.79
2023-11-22T17:48:31.522Z,9.72
2023-11-22T17:50:58.871Z,9.80
2023-11-22T17:53:26.192Z,9.80
2023-11-22T17:55:53.814Z,9.95
2023-11-22T17:58:21.067Z,9.96
2023-11-22T18:00:48.378Z,10.11
2023-11-22T18:03:15.840Z,10.08
2023-11-22T18:05:44.689Z,10.19
2023-11-22T18:08:12.309Z,10.36
2023-11-22T18:10:44.655Z,10.43
2023-11-22T18:13:16.004Z,10.47
2023-11-22T18:15:43.809Z,10.34
2023-11-22T18:18:11.362Z,9.96
2023-11-22T18:20:38.728Z,10.07
2023-11-22T18:23:07.487Z,10.07
2023-11-22T18:25:34.911Z,10.07
2023-11-22T18:28:02.180Z,10.01
2023-11-22T18:30:29.431Z,9.65
2023-11-22T18:32:56.756Z,9.76
2023-11-22T18:35:24.356Z,9.70
2023-11-22T18:37:51.705Z,9.61
2023-11-22T18:40:20.342Z,9.35
2023-11-22T18:42:47.625Z,9.13
2023-11-22T18:45:14.914Z,9.24
2023-11-22T18:47:42.378Z,9.44
2023-11-22T18:50:10.435Z,9.54
2023-11-22T18:52:37.689Z,9.53
2023-11-22T18:55:05.609Z,9.55
2023-11-22T18:57:34.237Z,9.56
2023-11-22T19:00:01.544Z,9.36
2023-11-22T19:02:28.956Z,9.39
2023-11-22T19:04:56.349Z,9.22
2023-11-22T19:07:23.633Z,9.19
2023-11-22T19:09:51.094Z,9.33
2023-11-22T19:12:18.464Z,9.42
2023-11-22T19:14:47.175Z,9.43
2023-11-22T19:17:14.451Z,9.43
2023-11-22T19:19:41.753Z,9.38
2023-11-22T19:22:09.501Z,9.29
2023-11-22T19:24:36.748Z,9.29
2023-11-22T19:27:04.427Z,9.30
2023-11-22T19:29:31.796Z,9.21
2023-11-22T19:32:00.437Z,9.29
2023-11-22T19:34:27.734Z,9.36
2023-11-22T19:36:56.523Z,9.35
2023-11-22T19:39:24.070Z,9.37
2023-11-22T19:41:51.446Z,9.33
2023-11-22T19:44:18.735Z,9.37
2023-11-22T19:46:45.987Z,9.35
2023-11-22T19:49:14.642Z,9.34
2023-11-22T19:51:41.974Z,9.33
2023-11-22T19:54:09.318Z,9.38
2023-11-22T19:56:36.706Z,9.25
2023-11-22T19:59:04.165Z,9.25
2023-11-22T20:01:31.701Z,9.08
2023-11-22T20:03:59.150Z,9.17
2023-11-22T20:06:27.883Z,9.20
2023-11-22T20:08:55.478Z,9.21
2023-11-22T20:11:22.753Z,9.05
2023-11-22T20:13:50.081Z,9.18
2023-11-22T20:16:17.592Z,9.11
2023-11-22T20:18:44.958Z,9.10
2023-11-22T20:21:12.417Z,9.07
2023-11-22T20:23:41.168Z,9.03
2023-11-22T20:26:08.601Z,9.00
2023-11-22T20:28:35.881Z,8.97
2023-11-22T20:31:03.145Z,8.96
2023-11-22T20:33:30.683Z,8.95
2023-11-22T20:35:58.129Z,8.90
2023-11-22T20:38:25.466Z,8.83
2023-11-22T20:40:54.189Z,8.79
2023-11-22T20:43:21.536Z,8.76
2023-11-22T20:45:48.984Z,8.67
2023-11-22T20:48:16.370Z,8.55
2023-11-22T20:50:43.950Z,8.63
2023-11-22T20:53:11.239Z,8.63
2023-11-22T20:55:39.348Z,8.64
2023-11-22T20:58:07.956Z,8.65
2023-11-22T21:00:35.216Z,8.72
2023-11-22T21:03:02.729Z,8.80
2023-11-22T21:05:30.111Z,8.80
2023-11-22T21:07:57.952Z,8.88
2023-11-22T21:10:25.376Z,8.75
2023-11-22T21:12:52.705Z,8.97
2023-11-22T21:15:21.389Z,9.05
2023-11-22T21:17:48.833Z,9.20
2023-11-22T21:20:16.293Z,9.27
2023-11-22T21:22:43.646Z,9.33
2023-11-22T21:25:11.131Z,9.41
2023-11-22T21:27:38.596Z,9.52
2023-11-22T21:30:07.180Z,9.57
2023-11-22T21:32:35.931Z,9.60
2023-11-22T21:35:03.310Z,9.65
2023-11-22T21:37:30.578Z,9.64
2023-11-22T21:39:57.838Z,9.54
2023-11-22T21:42:25.158Z,9.34
2023-11-22T21:44:52.462Z,9.19
2023-11-22T21:47:19.750Z,9.15
2023-11-22T21:49:48.614Z,9.07
2023-11-22T21:52:15.981Z,8.90
2023-11-22T21:54:43.339Z,9.05
2023-11-22T21:57:10.626Z,9.09
2023-11-22T21:59:38.031Z,9.08
2023-11-22T22:02:05.441Z,9.00
2023-11-22T22:04:32.813Z,8.89
2023-11-22T22:07:01.434Z,8.78
2023-11-22T22:09:28.697Z,8.80
2023-11-22T22:11:55.990Z,8.77
2023-11-22T22:14:23.257Z,8.73
2023-11-22T22:16:50.539Z,8.68
2023-11-22T22:19:17.815Z,8.57
2023-11-22T22:21:45.062Z,8.55
2023-11-22T22:24:13.783Z,8.48
2023-11-22T22:26:41.221Z,8.51
2023-11-22T22:29:08.528Z,8.50
2023-11-22T22:31:38.464Z,8.43
2023-11-22T22:34:05.732Z,8.38
2023-11-22T22:36:33.047Z,8.29
2023-11-22T22:39:00.385Z,8.39
2023-11-22T22:41:29.036Z,8.41
2023-11-22T22:43:56.323Z,8.43
2023-11-22T22:46:23.696Z,8.24
2023-11-22T22:48:51.450Z,8.30
2023-11-22T22:51:19.120Z,8.35
2023-11-22T22:53:47.010Z,8.29
2023-11-22T22:56:14.273Z,8.24
2023-11-22T22:58:42.925Z,8.21
2023-11-22T23:01:11.673Z,8.14
2023-11-22T23:03:39.202Z,8.03
2023-11-22T23:06:07.570Z,7.95
2023-11-22T23:08:37.281Z,7.97
2023-11-22T23:11:04.687Z,7.92
2023-11-22T23:13:32.146Z,7.94
2023-11-22T23:16:00.791Z,7.93
2023-11-22T23:18:28.196Z,7.90
2023-11-22T23:20:55.567Z,7.86
2023-11-22T23:23:22.870Z,7.80
2023-11-22T23:25:50.154Z,7.85
